Time;durP1;ratioP1;P1;durP2;ratioP2;P2;SDS_P1;SDS_P2;PMS_P1;PMS_P2;Temp;Humidity;BMP_temperature;BMP_pressure;BME280_temperature;BME280_humidity;BME280_pressure;Samples;Min_cycle;Max_cycle;Signal;HPM_P1;HPM_P2
2024/01/06 00:01:46;;;;;;;10.15;5.32;;;;;;;5.45;100.00;100459.44;5025840;28;20364;-76
2024/01/06 00:04:11;;;;;;;7.43;5.68;;;;;;;5.42;100.00;100464.72;5032652;28;20411;-75
2024/01/06 00:06:37;;;;;;;6.57;5.07;;;;;;;5.47;100.00;100462.00;5033249;28;20044;-75
2024/01/06 00:09:03;;;;;;;6.60;5.43;;;;;;;5.45;100.00;100462.03;5032937;28;20033;-76
2024/01/06 00:11:28;;;;;;;7.22;6.47;;;;;;;5.38;100.00;100457.88;5029135;28;20045;-76
2024/01/06 00:13:53;;;;;;;8.80;6.30;;;;;;;5.42;100.00;100469.94;5033669;28;20352;-75
2024/01/06 00:16:20;;;;;;;6.72;6.07;;;;;;;5.44;100.00;100477.66;5033555;28;20049;-75
2024/01/06 00:18:46;;;;;;;7.90;7.07;;;;;;;5.43;100.00;100473.38;5033224;28;20041;-75
2024/01/06 00:21:11;;;;;;;8.32;6.75;;;;;;;5.35;100.00;100476.16;5033292;28;20037;-76
2024/01/06 00:23:37;;;;;;;10.50;6.90;;;;;;;5.23;100.00;100479.06;5033118;28;20221;-75
2024/01/06 00:26:03;;;;;;;9.77;6.95;;;;;;;5.21;100.00;100481.69;5032887;28;20095;-75
2024/01/06 00:28:29;;;;;;;6.60;6.00;;;;;;;5.28;100.00;100482.41;5031819;28;20037;-75
2024/01/06 00:30:54;;;;;;;7.50;6.70;;;;;;;5.26;100.00;100479.00;5015823;28;20042;-75
2024/01/06 00:33:20;;;;;;;8.13;6.72;;;;;;;5.22;100.00;100473.03;5025755;28;20103;-75
2024/01/06 00:35:46;;;;;;;8.82;6.45;;;;;;;5.21;100.00;100473.91;5032316;28;20036;-75
2024/01/06 00:38:11;;;;;;;9.38;6.80;;;;;;;5.17;100.00;100480.06;5024900;28;20261;-76
2024/01/06 00:40:37;;;;;;;12.23;7.03;;;;;;;5.22;100.00;100485.13;5014671;28;20155;-76
2024/01/06 00:43:03;;;;;;;16.80;7.38;;;;;;;5.27;100.00;100485.88;5021960;28;20049;-76
2024/01/06 00:45:28;;;;;;;7.85;6.45;;;;;;;5.24;100.00;100493.72;5032680;28;20045;-76
2024/01/06 00:47:53;;;;;;;10.27;6.18;;;;;;;5.22;100.00;100492.91;5031513;28;20390;-75
2024/01/06 00:50:21;;;;;;;6.95;6.25;;;;;;;5.23;100.00;100498.06;5033239;28;20056;-75
2024/01/06 00:52:46;;;;;;;8.05;5.93;;;;;;;5.22;100.00;100498.09;5032686;28;20041;-76
2024/01/06 00:55:12;;;;;;;6.93;6.18;;;;;;;5.22;100.00;100491.19;5033158;28;20092;-75
2024/01/06 00:57:37;;;;;;;20.20;6.85;;;;;;;5.12;100.00;100495.72;5032849;28;20271;-76
2024/01/06 01:00:05;;;;;;;7.28;6.20;;;;;;;5.16;100.00;100505.16;5016604;28;20044;-75
2024/01/06 01:02:30;;;;;;;8.18;6.63;;;;;;;5.19;100.00;100501.66;5032020;28;20037;-76
2024/01/06 01:04:57;;;;;;;9.40;6.55;;;;;;;5.16;100.00;100505.16;5022472;28;20045;-76
2024/01/06 01:07:22;;;;;;;7.32;6.35;;;;;;;5.13;100.00;100512.16;5032321;28;20037;-75
2024/01/06 01:09:47;;;;;;;6.45;5.82;;;;;;;5.16;100.00;100510.34;5022375;28;20122;-75
2024/01/06 01:12:13;;;;;;;7.57;6.03;;;;;;;5.22;100.00;100516.28;5033685;28;20087;-75
2024/01/06 01:14:38;;;;;;;6.95;6.25;;;;;;;5.21;100.00;100519.78;5029153;28;20042;-75
2024/01/06 01:17:04;;;;;;;6.90;5.53;;;;;;;5.26;100.00;100523.97;5032575;28;20365;-75
2024/01/06 01:19:29;;;;;;;11.02;6.03;;;;;;;5.19;100.00;100531.03;5028403;28;20049;-75
2024/01/06 01:21:55;;;;;;;9.40;5.53;;;;;;;5.21;100.00;100538.81;5031949;28;20325;-76
2024/01/06 01:24:22;;;;;;;6.25;5.65;;;;;;;5.24;100.00;100536.16;5031330;28;20045;-75
2024/01/06 01:26:47;;;;;;;11.75;5.85;;;;;;;5.23;100.00;100541.38;5023713;28;20080;-75
2024/01/06 01:29:12;;;;;;;5.68;5.10;;;;;;;5.22;100.00;100553.50;5029043;28;20033;-75
2024/01/06 01:31:38;;;;;;;8.25;5.07;;;;;;;5.17;100.00;100557.94;5033367;28;20021;-75
2024/01/06 01:34:03;;;;;;;10.90;5.78;;;;;;;5.10;100.00;100559.81;5031612;28;20363;-76
2024/01/06 01:36:28;;;;;;;8.80;5.30;;;;;;;5.14;100.00;100563.19;5032911;28;20406;-76
2024/01/06 01:38:54;;;;;;;10.73;5.45;;;;;;;5.05;100.00;100566.84;5033112;28;20260;-76
2024/01/06 01:41:19;;;;;;;6.18;4.80;;;;;;;5.08;100.00;100564.19;5032481;28;20360;-75
2024/01/06 01:43:45;;;;;;;7.50;5.05;;;;;;;5.09;100.00;100565.88;5030651;28;20560;-76
2024/01/06 01:46:11;;;;;;;5.97;4.82;;;;;;;5.04;100.00;100567.75;5012828;28;20029;-75
2024/01/06 01:48:37;;;;;;;5.90;4.32;;;;;;;5.03;100.00;100567.78;5032928;28;20257;-75
2024/01/06 01:51:03;;;;;;;5.28;3.92;;;;;;;4.97;100.00;100580.00;5052950;28;20354;-75
2024/01/06 01:53:29;;;;;;;10.02;3.85;;;;;;;4.92;100.00;100578.41;5052457;28;20040;-76
2024/01/06 01:55:55;;;;;;;7.82;3.95;;;;;;;4.93;100.00;100585.28;5045609;28;20041;-75
2024/01/06 01:58:21;;;;;;;5.28;3.95;;;;;;;4.93;100.00;100585.28;5033112;28;20045;-75
2024/01/06 02:00:46;;;;;;;5.22;3.40;;;;;;;4.97;100.00;100592.13;5034097;28;20230;-75
2024/01/06 02:03:13;;;;;;;3.45;3.03;;;;;;;4.91;100.00;100589.66;5036545;28;20374;-75
2024/01/06 02:05:39;;;;;;;6.13;2.97;;;;;;;4.94;100.00;100593.03;5037225;28;20044;-75
2024/01/06 02:08:05;;;;;;;3.40;3.00;;;;;;;4.90;100.00;100601.78;5036571;28;20029;-75
2024/01/06 02:10:30;;;;;;;3.95;2.00;;;;;;;4.85;100.00;100593.22;5036580;28;20036;-76
2024/01/06 02:12:56;;;;;;;4.32;1.90;;;;;;;4.88;100.00;100611.34;5036145;28;20037;-76
2024/01/06 02:15:21;;;;;;;4.03;2.00;;;;;;;4.87;100.00;100611.38;5036142;28;20045;-76
2024/01/06 02:17:46;;;;;;;2.58;1.55;;;;;;;4.74;100.00;100614.19;5036746;28;20444;-76
2024/01/06 02:20:14;;;;;;;4.28;1.92;;;;;;;4.69;100.00;100613.44;5033040;28;20029;-75
2024/01/06 02:22:39;;;;;;;5.90;1.75;;;;;;;4.61;100.00;100626.56;5016831;28;20049;-75
2024/01/06 02:25:12;;;;;;;3.08;2.08;;;;;;;4.60;100.00;100618.81;5056175;28;20363;-75
2024/01/06 02:27:38;;;;;;;1.88;1.77;;;;;;;4.58;100.00;100625.75;5037669;28;20044;-76
2024/01/06 02:30:04;;;;;;;3.25;2.30;;;;;;;4.52;100.00;100626.75;5025564;28;20112;-76
2024/01/06 02:32:29;;;;;;;7.40;2.55;;;;;;;4.46;100.00;100626.88;5035143;28;20045;-76
2024/01/06 02:34:54;;;;;;;3.53;2.50;;;;;;;4.47;100.00;100636.34;5042523;28;20031;-76
2024/01/06 02:37:20;;;;;;;2.88;2.50;;;;;;;4.43;100.00;100638.13;5046884;28;20258;-75
2024/01/06 02:39:45;;;;;;;3.88;2.50;;;;;;;4.39;100.00;100654.63;5045528;28;20037;-76
2024/01/06 02:42:10;;;;;;;2.47;2.28;;;;;;;4.30;100.00;100644.44;5036458;28;20380;-75
2024/01/06 02:44:36;;;;;;;3.15;2.28;;;;;;;4.32;100.00;100657.38;5036382;28;20057;-76
2024/01/06 02:47:01;;;;;;;3.45;3.15;;;;;;;4.31;100.00;100645.28;5019183;28;20041;-76
2024/01/06 02:49:26;;;;;;;3.67;3.38;;;;;;;4.31;100.00;100647.88;5035852;28;20109;-75
2024/01/06 02:51:52;;;;;;;6.97;3.85;;;;;;;4.34;100.00;100656.47;5031208;28;20255;-75
2024/01/06 02:54:17;;;;;;;6.35;4.47;;;;;;;4.41;100.00;100658.06;5034195;28;20041;-75
2024/01/06 02:56:42;;;;;;;4.43;4.03;;;;;;;4.46;100.00;100660.59;5034673;28;20029;-76
2024/01/06 02:59:08;;;;;;;5.32;3.95;;;;;;;4.38;100.00;100665.91;5027448;28;20033;-76
2024/01/06 03:01:34;;;;;;;3.92;3.67;;;;;;;4.38;100.00;100658.13;5041848;28;20394;-75
2024/01/06 03:03:59;;;;;;;7.95;4.50;;;;;;;4.33;100.00;100667.72;5026589;28;20029;-76
2024/01/06 03:06:24;;;;;;;5.65;4.07;;;;;;;4.33;100.00;100672.91;5035342;28;20048;-75
2024/01/06 03:08:50;;;;;;;4.82;4.38;;;;;;;4.32;100.00;100672.94;5035391;28;20140;-72
2024/01/06 03:11:15;;;;;;;5.78;4.15;;;;;;;4.34;100.00;100674.59;5016570;28;20038;-72
2024/01/06 03:13:40;;;;;;;6.90;4.45;;;;;;;4.34;100.00;100672.00;5022240;28;20209;-72
2024/01/06 03:16:06;;;;;;;8.50;4.65;;;;;;;4.33;100.00;100678.09;5035673;28;20424;-72
2024/01/06 03:18:31;;;;;;;7.43;4.85;;;;;;;4.31;100.00;100679.00;5035215;28;20500;-72
2024/01/06 03:20:56;;;;;;;9.68;5.00;;;;;;;4.28;100.00;100685.09;5034908;28;20128;-72
2024/01/06 03:23:22;;;;;;;6.60;4.63;;;;;;;4.30;100.00;100682.47;5026768;28;20045;-75
2024/01/06 03:25:47;;;;;;;5.57;5.07;;;;;;;4.34;100.00;100689.31;5036151;28;20041;-75
2024/01/06 03:28:13;;;;;;;8.52;5.22;;;;;;;4.31;100.00;100687.66;5034047;28;20088;-75
2024/01/06 03:30:39;;;;;;;5.03;4.40;;;;;;;4.32;100.00;100685.91;5033106;28;20029;-76
2024/01/06 03:33:06;;;;;;;5.75;4.30;;;;;;;4.29;100.00;100697.16;5033669;28;20041;-76
2024/01/06 03:35:31;;;;;;;7.55;5.05;;;;;;;4.33;100.00;100688.47;5035258;28;20064;-75
2024/01/06 03:37:56;;;;;;;5.28;4.43;;;;;;;4.35;100.00;100699.66;5026225;28;20612;-76
2024/01/06 03:40:21;;;;;;;8.25;4.30;;;;;;;4.36;100.00;100695.31;5033277;28;20041;-75
2024/01/06 03:42:47;;;;;;;3.97;3.30;;;;;;;4.32;100.00;100699.72;5033558;28;20106;-76
2024/01/06 03:45:13;;;;;;;8.00;3.28;;;;;;;4.36;100.00;100706.53;5033977;28;20347;-75
2024/01/06 03:47:38;;;;;;;3.55;3.20;;;;;;;4.34;100.00;100712.66;5020898;28;20092;-75
2024/01/06 03:50:04;;;;;;;7.10;3.33;;;;;;;4.31;100.00;100710.97;5034533;28;20071;-75
2024/01/06 03:52:30;;;;;;;4.38;3.58;;;;;;;4.25;100.00;100708.47;5034493;28;20232;-75
2024/01/06 03:54:55;;;;;;;4.70;3.50;;;;;;;4.30;100.00;100722.22;5047032;28;20051;-75
2024/01/06 03:57:20;;;;;;;4.43;3.28;;;;;;;4.22;100.00;100724.06;5050744;28;20057;-75
2024/01/06 03:59:46;;;;;;;4.00;3.10;;;;;;;4.26;100.00;100724.88;5034781;28;20045;-75
2024/01/06 04:02:11;;;;;;;3.60;3.30;;;;;;;4.26;100.00;100732.66;5021811;28;20041;-75
2024/01/06 04:04:36;;;;;;;6.18;3.30;;;;;;;4.16;100.00;100722.44;5029803;28;20037;-75
2024/01/06 04:07:02;;;;;;;7.28;3.90;;;;;;;4.26;100.00;100732.66;5033520;28;20147;-76
2024/01/06 04:09:27;;;;;;;4.53;3.65;;;;;;;4.26;100.00;100738.72;5025795;28;20040;-75
2024/01/06 04:11:53;;;;;;;4.60;3.60;;;;;;;4.19;100.00;100742.28;5014768;28;20052;-76
2024/01/06 04:14:18;;;;;;;3.70;3.40;;;;;;;4.18;100.00;100750.94;5021681;28;20053;-75
2024/01/06 04:16:43;;;;;;;13.45;4.18;;;;;;;4.13;100.00;100744.94;5035136;28;20049;-75
2024/01/06 04:19:11;;;;;;;9.57;4.10;;;;;;;4.17;100.00;100750.06;5033259;28;20029;-75
2024/01/06 04:21:36;;;;;;;5.07;4.57;;;;;;;4.18;100.00;100757.00;5034694;28;20033;-75
2024/01/06 04:24:01;;;;;;;5.68;4.22;;;;;;;4.16;100.00;100747.50;5033510;28;20037;-76
2024/01/06 04:26:27;;;;;;;3.95;3.60;;;;;;;4.16;100.00;100763.91;5034417;28;20041;-75
2024/01/06 04:28:52;;;;;;;5.95;4.00;;;;;;;4.14;100.00;100757.03;5033917;28;20044;-76
2024/01/06 04:31:17;;;;;;;4.32;3.90;;;;;;;4.20;100.00;100762.13;5032900;28;20128;-76
2024/01/06 04:33:42;;;;;;;5.70;4.50;;;;;;;4.15;100.00;100766.53;5034698;28;20241;-75
2024/01/06 04:36:08;;;;;;;8.52;4.40;;;;;;;4.13;100.00;100768.28;5019170;28;20064;-75
2024/01/06 04:38:33;;;;;;;7.22;4.20;;;;;;;4.14;100.00;100772.59;5025687;28;20251;-75
2024/01/06 04:40:58;;;;;;;4.82;4.25;;;;;;;4.14;100.00;100764.81;5033661;28;20198;-76
2024/01/06 04:43:24;;;;;;;11.00;4.35;;;;;;;4.17;100.00;100765.63;5034116;28;20059;-75
2024/01/06 04:45:50;;;;;;;5.00;4.50;;;;;;;4.22;100.00;100768.13;5032951;28;20119;-75
2024/01/06 04:48:15;;;;;;;5.88;4.68;;;;;;;4.19;100.00;100775.97;5024525;28;20264;-76
2024/01/06 04:50:41;;;;;;;6.68;4.35;;;;;;;4.09;100.00;100779.56;5030045;28;20041;-76
2024/01/06 04:53:06;;;;;;;6.75;4.65;;;;;;;4.06;100.00;100783.09;5033545;28;20049;-75
2024/01/06 04:55:32;;;;;;;6.40;4.43;;;;;;;4.10;100.00;100781.31;5033360;28;20044;-75
2024/01/06 04:57:57;;;;;;;8.70;4.75;;;;;;;4.09;100.00;100782.16;5033191;28;20355;-75
2024/01/06 05:00:23;;;;;;;5.57;3.72;;;;;;;3.98;100.00;100778.03;5038050;28;20395;-75
2024/01/06 05:02:48;;;;;;;5.78;4.30;;;;;;;3.98;100.00;100779.72;5033822;28;20041;-75
2024/01/06 05:05:14;;;;;;;4.15;3.75;;;;;;;3.94;100.00;100789.28;5043137;28;20167;-75
2024/01/06 05:07:39;;;;;;;6.90;3.83;;;;;;;3.97;100.00;100789.25;5033068;28;20037;-75
2024/01/06 05:10:05;;;;;;;6.10;3.83;;;;;;;3.98;100.00;100792.69;5033601;28;20033;-75
2024/01/06 05:12:31;;;;;;;3.80;3.50;;;;;;;3.95;100.00;100809.16;5032772;28;20083;-75
2024/01/06 05:14:56;;;;;;;6.15;3.58;;;;;;;3.95;100.00;100808.31;5033744;28;20325;-75
2024/01/06 05:17:21;;;;;;;4.45;3.50;;;;;;;3.97;100.00;100811.72;5020927;28;20064;-75
2024/01/06 05:19:47;;;;;;;5.60;3.75;;;;;;;3.93;100.00;100808.31;5020936;28;20029;-75
2024/01/06 05:22:13;;;;;;;3.97;3.45;;;;;;;3.96;100.00;100810.84;5021315;28;20308;-75
2024/01/06 05:24:38;;;;;;;4.30;3.70;;;;;;;3.93;100.00;100808.31;5024704;28;20079;-75
2024/01/06 05:27:04;;;;;;;7.80;3.92;;;;;;;3.90;100.00;100810.94;5021928;28;20148;-75
2024/01/06 05:29:29;;;;;;;4.32;3.28;;;;;;;3.88;100.00;100825.66;5021867;28;20071;-76
2024/01/06 05:31:54;;;;;;;4.80;3.33;;;;;;;3.91;100.00;100823.03;5024714;28;20043;-75
2024/01/06 05:34:20;;;;;;;5.70;3.67;;;;;;;3.93;100.00;100823.88;5023800;28;20057;-75
2024/01/06 05:36:45;;;;;;;6.28;4.28;;;;;;;3.97;100.00;100822.09;5025618;28;20041;-75
2024/01/06 05:39:10;;;;;;;4.53;3.90;;;;;;;3.97;100.00;100822.94;5027881;28;20405;-75
2024/01/06 05:41:40;;;;;;;4.60;3.97;;;;;;;4.03;100.00;100825.44;5025055;28;20067;-75
2024/01/06 05:44:05;;;;;;;5.05;3.40;;;;;;;3.96;100.00;100828.13;5027743;28;20099;-75
2024/01/06 05:46:31;;;;;;;4.28;3.03;;;;;;;4.02;100.00;100830.63;5031316;28;20060;-75
2024/01/06 05:48:56;;;;;;;7.32;3.95;;;;;;;4.02;100.00;100834.09;5026474;28;20029;-75
2024/01/06 05:51:22;;;;;;;4.55;3.20;;;;;;;4.02;100.00;100835.81;5027390;28;20105;-75
2024/01/06 05:53:47;;;;;;;3.83;3.28;;;;;;;3.98;100.00;100844.50;5029579;28;20040;-76
2024/01/06 05:56:24;;;;;;;3.63;3.33;;;;;;;3.90;100.00;100844.63;5027087;28;20067;-75
2024/01/06 05:58:49;;;;;;;4.28;3.30;;;;;;;3.94;100.00;100851.47;5032087;28;20052;-75
2024/01/06 06:01:14;;;;;;;3.22;2.78;;;;;;;3.97;100.00;100858.38;5032203;28;20041;-75
2024/01/06 06:03:40;;;;;;;2.85;2.42;;;;;;;3.98;100.00;100860.94;5027300;28;20116;-76
2024/01/06 06:06:06;;;;;;;2.88;2.67;;;;;;;4.00;100.00;100864.38;5026400;28;20061;-75
2024/01/06 06:08:31;;;;;;;3.33;3.00;;;;;;;4.09;100.00;100872.88;5025950;28;20080;-75
2024/01/06 06:11:05;;;;;;;5.45;2.70;;;;;;;4.01;100.00;100865.22;5028878;28;20041;-75
2024/01/06 06:13:30;;;;;;;3.35;2.38;;;;;;;4.00;100.00;100876.44;5030415;28;20029;-75
2024/01/06 06:15:56;;;;;;;4.05;2.30;;;;;;;3.95;100.00;100884.28;5028403;28;20092;-75
2024/01/06 06:18:22;;;;;;;4.03;2.00;;;;;;;3.89;100.00;100886.09;5029555;28;20108;-75
2024/01/06 06:20:47;;;;;;;2.50;1.70;;;;;;;3.83;100.00;100885.28;5027578;28;20065;-76
2024/01/06 06:23:13;;;;;;;2.75;2.08;;;;;;;3.84;100.00;100894.78;5025668;28;20046;-75
2024/01/06 06:25:39;;;;;;;5.07;2.13;;;;;;;3.88;100.00;100900.78;5025567;28;20214;-75
2024/01/06 06:28:04;;;;;;;2.80;2.50;;;;;;;3.93;100.00;100903.31;5024728;28;20084;-75
2024/01/06 06:30:29;;;;;;;5.15;2.00;;;;;;;3.89;100.00;100907.66;5025326;28;20324;-75
2024/01/06 06:32:55;;;;;;;2.45;2.25;;;;;;;3.93;100.00;100913.69;5024955;28;20224;-75
2024/01/06 06:35:22;;;;;;;3.03;2.53;;;;;;;3.86;100.00;100920.69;5032146;28;20341;-75
2024/01/06 06:37:47;;;;;;;3.72;2.70;;;;;;;3.84;100.00;100915.50;5035742;28;20096;-75
2024/01/06 06:40:13;;;;;;;4.63;2.95;;;;;;;3.83;100.00;100921.56;5034296;28;20045;-75
2024/01/06 06:42:38;;;;;;;3.05;2.35;;;;;;;3.88;100.00;100918.09;5023587;28;20244;-75
2024/01/06 06:45:04;;;;;;;2.72;2.53;;;;;;;3.85;100.00;100919.81;5035438;28;20324;-75
2024/01/06 06:47:30;;;;;;;2.78;2.58;;;;;;;3.81;100.00;100930.25;5045054;28;20029;-76
2024/01/06 06:49:55;;;;;;;4.78;2.70;;;;;;;3.82;100.00;100938.00;5034427;28;20041;-75
2024/01/06 06:52:20;;;;;;;2.50;2.25;;;;;;;3.71;100.00;100937.25;5036301;28;20250;-75
2024/01/06 06:54:46;;;;;;;3.42;2.60;;;;;;;3.70;100.00;100942.47;5034507;28;20317;-75
2024/01/06 06:57:11;;;;;;;4.82;2.72;;;;;;;3.70;100.00;100939.88;5035395;28;20233;-75
2024/01/06 06:59:37;;;;;;;2.70;2.50;;;;;;;3.73;100.00;100947.59;5032014;28;20032;-75
2024/01/06 07:02:02;;;;;;;3.80;2.78;;;;;;;3.67;100.00;100951.09;5034543;28;20018;-75
2024/01/06 07:04:27;;;;;;;6.85;2.95;;;;;;;3.71;100.00;100959.69;5035722;28;20033;-75
2024/01/06 07:06:53;;;;;;;3.50;3.15;;;;;;;3.72;100.00;100961.44;5017577;28;20229;-75
2024/01/06 07:09:18;;;;;;;4.82;3.10;;;;;;;3.70;100.00;100968.34;5015849;28;20535;-75
2024/01/06 07:11:44;;;;;;;3.47;3.17;;;;;;;3.66;100.00;100975.31;5032775;28;20129;-75
2024/01/06 07:14:09;;;;;;;3.67;3.38;;;;;;;3.59;100.00;100977.09;5035485;28;20052;-76
2024/01/06 07:16:34;;;;;;;6.07;3.75;;;;;;;3.52;100.00;100983.19;5035423;28;20041;-76
2024/01/06 07:19:00;;;;;;;5.38;3.95;;;;;;;3.54;100.00;100988.34;5035434;28;20048;-75
2024/01/06 07:21:25;;;;;;;3.95;3.40;;;;;;;3.56;100.00;100994.38;5034962;28;20044;-75
2024/01/06 07:23:51;;;;;;;8.88;3.88;;;;;;;3.54;100.00;100991.81;5035303;28;20249;-75
2024/01/06 07:26:17;;;;;;;3.63;3.33;;;;;;;3.56;100.00;101002.16;5035400;28;20060;-75
2024/01/06 07:28:43;;;;;;;3.78;3.30;;;;;;;3.60;100.00;100989.16;5035806;28;20025;-75
2024/01/06 07:31:08;;;;;;;8.18;4.03;;;;;;;3.64;100.00;100997.78;5034115;28;20037;-75
2024/01/06 07:33:33;;;;;;;8.00;3.88;;;;;;;3.63;100.00;100999.47;5035755;28;20048;-75
2024/01/06 07:35:59;;;;;;;5.25;3.85;;;;;;;3.67;100.00;101007.22;5034548;28;20352;-75
2024/01/06 07:38:24;;;;;;;3.72;3.35;;;;;;;3.64;100.00;101021.09;5035109;28;20044;-75
2024/01/06 07:40:49;;;;;;;3.83;3.22;;;;;;;3.67;100.00;101009.81;5034590;28;20124;-75
2024/01/06 07:43:15;;;;;;;3.97;3.40;;;;;;;3.67;100.00;101021.03;5035179;28;20029;-75
2024/01/06 07:45:41;;;;;;;5.50;3.80;;;;;;;3.67;100.00;101025.38;5035475;28;20037;-75
2024/01/06 07:48:07;;;;;;;5.10;3.75;;;;;;;3.68;100.00;101019.31;5033925;28;20064;-75
2024/01/06 07:50:32;;;;;;;5.35;3.53;;;;;;;3.65;100.00;101033.13;5031654;28;20247;-75
2024/01/06 07:52:58;;;;;;;3.47;3.17;;;;;;;3.54;100.00;101032.38;5015144;28;20045;-76
2024/01/06 07:55:23;;;;;;;4.03;3.45;;;;;;;3.61;100.00;101039.22;5018046;28;20032;-75
2024/01/06 07:57:48;;;;;;;4.70;3.45;;;;;;;3.62;100.00;101041.81;5027904;28;20083;-75
2024/01/06 08:00:14;;;;;;;3.97;2.80;;;;;;;3.60;100.00;101053.91;5027455;28;20037;-75
2024/01/06 08:02:40;;;;;;;3.80;3.28;;;;;;;3.59;100.00;101051.34;5030132;28;20045;-75
2024/01/06 08:05:06;;;;;;;4.05;2.88;;;;;;;3.63;100.00;101061.66;5034080;28;20040;-75
2024/01/06 08:07:32;;;;;;;6.07;3.15;;;;;;;3.57;100.00;101064.28;5020756;28;20038;-75
2024/01/06 08:09:57;;;;;;;3.05;2.75;;;;;;;3.59;100.00;101070.31;5032048;28;20252;-75
2024/01/06 08:12:23;;;;;;;4.45;2.30;;;;;;;3.58;100.00;101075.50;5033932;28;20049;-75
2024/01/06 08:14:48;;;;;;;2.03;1.92;;;;;;;3.59;100.00;101088.44;5034267;28;20045;-75
2024/01/06 08:17:13;;;;;;;1.92;1.83;;;;;;;3.56;100.00;101082.44;5032975;28;20041;-75
2024/01/06 08:19:39;;;;;;;2.53;2.20;;;;;;;3.53;100.00;101080.75;5033502;28;20303;-75
2024/01/06 08:22:04;;;;;;;3.05;2.40;;;;;;;3.53;100.00;101082.44;5032830;28;20048;-75
2024/01/06 08:24:30;;;;;;;5.82;2.47;;;;;;;3.52;100.00;101085.94;5018772;28;20029;-75
2024/01/06 08:26:55;;;;;;;7.80;2.70;;;;;;;3.55;100.00;101086.75;5033261;28;20072;-75
2024/01/06 08:29:20;;;;;;;2.85;2.65;;;;;;;3.55;100.00;101096.28;5032561;28;20048;-75
2024/01/06 08:31:46;;;;;;;4.43;2.95;;;;;;;3.58;100.00;101102.25;5022012;28;20357;-75
2024/01/06 08:34:11;;;;;;;4.35;3.08;;;;;;;3.63;100.00;101104.81;5021367;28;20105;-75
2024/01/06 08:36:37;;;;;;;3.72;3.13;;;;;;;3.65;100.00;101106.53;5034058;28;20060;-75
2024/01/06 08:39:02;;;;;;;4.07;3.15;;;;;;;3.66;100.00;101104.81;5032472;28;20068;-75
2024/01/06 08:41:28;;;;;;;6.30;3.50;;;;;;;3.65;100.00;101109.09;5034135;28;20040;-75
2024/01/06 08:43:54;;;;;;;6.22;3.35;;;;;;;3.69;100.00;101112.53;5032758;28;20269;-75
2024/01/06 08:46:19;;;;;;;6.38;3.25;;;;;;;3.70;100.00;101106.50;5033489;28;20029;-75
2024/01/06 08:48:44;;;;;;;3.65;3.22;;;;;;;3.69;100.00;101109.94;5031243;28;20590;-75
2024/01/06 08:51:10;;;;;;;3.60;3.30;;;;;;;3.69;100.00;101115.13;5043088;28;20041;-75
2024/01/06 08:53:35;;;;;;;3.70;3.40;;;;;;;3.67;100.00;101122.06;5023122;28;20034;-75
2024/01/06 08:56:00;;;;;;;6.82;3.45;;;;;;;3.63;100.00;101129.00;5030923;28;20112;-75
2024/01/06 08:58:27;;;;;;;5.25;2.97;;;;;;;3.63;100.00;101139.34;5047597;28;20147;-75
2024/01/06 09:00:53;;;;;;;4.10;2.97;;;;;;;3.72;100.00;101140.16;5030730;28;20371;-75
2024/01/06 09:03:24;;;;;;;3.08;2.80;;;;;;;3.70;100.00;101139.31;5022757;28;20029;-75
2024/01/06 09:05:50;;;;;;;4.47;2.55;;;;;;;3.64;100.00;101146.25;5023998;28;20025;-75
2024/01/06 09:08:16;;;;;;;2.65;2.40;;;;;;;3.58;100.00;101154.06;5030939;28;20047;-75
2024/01/06 09:10:42;;;;;;;3.10;2.63;;;;;;;3.56;100.00;101153.22;5027810;28;20564;-75
2024/01/06 09:13:08;;;;;;;2.95;2.35;;;;;;;3.59;100.00;101154.94;5027140;28;20025;-75
2024/01/06 09:15:33;;;;;;;3.42;2.33;;;;;;;3.58;100.00;101158.38;5026355;28;20381;-75
2024/01/06 09:17:58;;;;;;;2.75;2.22;;;;;;;3.55;100.00;101163.59;5021986;28;20363;-75
2024/01/06 09:20:24;;;;;;;4.80;2.55;;;;;;;3.56;100.00;101171.34;5023495;28;20052;-75
2024/01/06 09:22:49;;;;;;;2.72;2.00;;;;;;;3.53;100.00;101163.59;5044523;28;20040;-75
2024/01/06 09:25:15;;;;;;;2.25;2.08;;;;;;;3.53;100.00;101173.09;5032737;28;20037;-75
2024/01/06 09:27:40;;;;;;;1.65;1.55;;;;;;;3.50;100.00;101171.38;5033362;28;20034;-75
2024/01/06 09:30:08;;;;;;;2.80;1.60;;;;;;;3.54;100.00;101182.59;5025514;28;20061;-75
2024/01/06 09:32:33;;;;;;;2.08;1.80;;;;;;;3.53;100.00;101183.44;5033233;28;20096;-75
2024/01/06 09:34:58;;;;;;;2.60;2.40;;;;;;;3.47;100.00;101184.34;5032096;28;20040;-75
2024/01/06 09:37:24;;;;;;;2.08;1.88;;;;;;;3.48;100.00;101191.25;5032767;28;20037;-75
2024/01/06 09:39:49;;;;;;;2.13;2.03;;;;;;;3.55;100.00;101192.94;5016971;28;20034;-75
2024/01/06 09:42:14;;;;;;;3.58;2.78;;;;;;;3.60;100.00;101191.19;5020979;28;20041;-75
2024/01/06 09:44:40;;;;;;;2.67;2.10;;;;;;;3.57;100.00;101196.38;5029428;28;20034;-75
2024/01/06 09:47:06;;;;;;;2.40;2.20;;;;;;;3.66;100.00;101208.41;5024114;28;20041;-75
2024/01/06 09:49:34;;;;;;;3.85;2.33;;;;;;;3.72;100.00;101212.69;5028832;28;20033;-75
2024/01/06 09:52:01;;;;;;;3.25;2.30;;;;;;;3.77;100.00;101213.53;5032540;28;20056;-75
2024/01/06 09:54:33;;;;;;;5.00;2.40;;;;;;;3.74;100.00;101219.56;5032719;28;20332;-75
2024/01/06 09:57:00;;;;;;;2.90;2.40;;;;;;;3.80;100.00;101219.56;5022789;28;20241;-75
2024/01/06 09:59:25;;;;;;;2.20;2.00;;;;;;;3.90;100.00;101229.84;5027992;28;20048;-76
2024/01/06 10:01:52;;;;;;;2.70;2.40;;;;;;;3.92;100.00;101233.28;5041194;28;20033;-76
2024/01/06 10:04:18;;;;;;;4.60;2.65;;;;;;;4.01;100.00;101230.63;5042182;28;20106;-75
2024/01/06 10:06:43;;;;;;;2.45;2.25;;;;;;;3.93;100.00;101238.47;5036921;28;20368;-75
2024/01/06 10:09:08;;;;;;;2.97;2.65;;;;;;;3.89;100.00;101241.06;5039463;28;20032;-75
2024/01/06 10:11:35;;;;;;;5.95;2.60;;;;;;;3.91;100.00;101244.53;5041193;28;20044;-75
2024/01/06 10:14:03;;;;;;;2.92;2.45;;;;;;;3.92;100.00;101246.25;5044412;28;20107;-75
2024/01/06 10:16:28;;;;;;;2.53;2.20;;;;;;;3.88;100.00;101249.75;5044988;28;20036;-76
2024/01/06 10:18:53;;;;;;;2.53;2.30;;;;;;;3.90;100.00;101240.22;5042732;28;20097;-75
2024/01/06 10:21:23;;;;;;;2.22;2.13;;;;;;;3.79;100.00;101243.72;5043760;28;20599;-75
2024/01/06 10:23:48;;;;;;;2.42;2.22;;;;;;;3.79;100.00;101251.50;5045396;28;20173;-75
2024/01/06 10:26:14;;;;;;;2.63;2.35;;;;;;;3.85;100.00;101253.19;5040078;28;20036;-75
2024/01/06 10:28:41;;;;;;;3.20;2.50;;;;;;;3.78;100.00;101261.88;5044512;28;20376;-75
2024/01/06 10:31:08;;;;;;;2.65;2.45;;;;;;;3.72;100.00;101259.31;5046483;28;20037;-75
2024/01/06 10:33:33;;;;;;;3.60;2.50;;;;;;;3.70;100.00;101263.66;5042858;28;20060;-75
2024/01/06 10:36:00;;;;;;;2.75;2.55;;;;;;;3.71;100.00;101261.06;5037712;28;20355;-75
2024/01/06 10:38:26;;;;;;;2.40;2.20;;;;;;;3.72;100.00;101269.69;5045410;28;20036;-75
2024/01/06 10:41:06;;;;;;;2.80;2.15;;;;;;;3.69;100.00;101270.56;5047053;28;20340;-75
2024/01/06 10:43:36;;;;;;;2.70;2.50;;;;;;;3.70;100.00;101274.03;5044901;28;20033;-75
2024/01/06 10:46:04;;;;;;;2.97;2.13;;;;;;;3.71;100.00;101273.13;5042540;28;20082;-75
2024/01/06 10:48:33;;;;;;;2.22;2.03;;;;;;;3.58;100.00;101275.78;5045525;28;20260;-75
2024/01/06 10:50:58;;;;;;;;;;;;;;;3.62;100.00;101284.41;5044350;28;20414;-75
2024/01/06 10:53:26;;;;;;;5.57;2.20;;;;;;;3.61;100.00;101288.72;5044077;28;19925;-75
2024/01/06 10:55:52;;;;;;;4.63;2.20;;;;;;;3.60;100.00;101288.72;5043094;28;20282;-75
2024/01/06 10:58:18;;;;;;;3.72;2.00;;;;;;;3.61;100.00;101288.72;5045040;28;20621;-75
2024/01/06 11:00:44;;;;;;;2.88;2.67;;;;;;;3.57;100.00;101288.75;5044446;28;20036;-75
2024/01/06 11:03:10;;;;;;;4.28;2.13;;;;;;;3.56;100.00;101294.78;5043500;28;20115;-75
2024/01/06 11:05:36;;;;;;;3.28;2.97;;;;;;;3.59;100.00;101302.56;5041968;28;20347;-75
2024/01/06 11:08:04;;;;;;;4.57;2.58;;;;;;;3.60;100.00;101293.91;5042552;28;20036;-75
2024/01/06 11:10:31;;;;;;;3.95;3.08;;;;;;;3.60;100.00;101293.91;5043344;28;20044;-75
2024/01/06 11:13:13;;;;;;;3.20;2.50;;;;;;;3.63;100.00;101299.94;5044918;28;20335;-75
2024/01/06 11:15:43;;;;;;;5.85;2.78;;;;;;;3.59;100.00;101290.47;5042832;28;20041;-75
2024/01/06 11:18:08;;;;;;;2.53;2.33;;;;;;;3.60;100.00;101294.78;5044938;28;20040;-75